createdAt,value
2018-07-20T00:01:45.111Z,98181.83
2018-07-20T00:04:13.559Z,98175.69
2018-07-20T00:06:41.994Z,98164.36
2018-07-20T00:09:10.975Z,98170.90
2018-07-20T00:11:39.496Z,98168.86
2018-07-20T00:14:07.930Z,98172.09
2018-07-20T00:16:36.373Z,98170.59
2018-07-20T00:19:04.817Z,98173.55
2018-07-20T00:21:33.287Z,98171.50
2018-07-20T00:24:02.117Z,98174.13
2018-07-20T00:26:30.564Z,98168.55
2018-07-20T00:28:59.159Z,98167.28
2018-07-20T00:31:27.796Z,98170.05
2018-07-20T00:33:56.251Z,98172.74
2018-07-20T00:36:24.687Z,98173.88
2018-07-20T00:38:53.270Z,98167.83
2018-07-20T00:41:21.708Z,98175.66
2018-07-20T00:43:50.150Z,98177.30
2018-07-20T00:46:19.119Z,98176.97
2018-07-20T00:48:47.577Z,98178.31
2018-07-20T00:51:16.026Z,98178.60
2018-07-20T00:53:44.944Z,98173.64
2018-07-20T00:56:13.348Z,98178.34
2018-07-20T00:58:41.858Z,98173.97
2018-07-20T01:01:10.330Z,98174.78
2018-07-20T01:03:38.788Z,98168.25
2018-07-20T01:06:07.859Z,98167.64
2018-07-20T01:08:36.321Z,98171.45
2018-07-20T01:11:04.935Z,98167.64
2018-07-20T01:13:33.361Z,98168.37
2018-07-20T01:16:01.858Z,98167.49
2018-07-20T01:18:30.363Z,98171.51
2018-07-20T01:20:59.119Z,98175.95
2018-07-20T01:23:27.636Z,98175.49
2018-07-20T01:25:56.199Z,98143.23
2018-07-20T01:28:24.622Z,98175.00
2018-07-20T01:30:53.122Z,98170.14
2018-07-20T01:33:21.624Z,98169.98
2018-07-20T01:35:50.340Z,98169.84
2018-07-20T01:38:18.768Z,98169.97
2018-07-20T01:40:47.186Z,98174.97
2018-07-20T01:43:15.647Z,98170.80
2018-07-20T01:45:44.166Z,98176.19
2018-07-20T01:48:12.619Z,98173.74
2018-07-20T01:50:41.039Z,98168.80
2018-07-20T01:53:09.860Z,98167.87
2018-07-20T01:55:38.384Z,98168.47
2018-07-20T01:58:06.860Z,98169.02
2018-07-20T02:00:35.317Z,98173.50
2018-07-20T02:03:03.737Z,98167.23
2018-07-20T02:05:32.149Z,98170.50
2018-07-20T02:08:00.639Z,98169.13
2018-07-20T02:10:29.205Z,98170.89
2018-07-20T02:12:57.796Z,98173.46
2018-07-20T02:15:26.236Z,98167.59
2018-07-20T02:17:54.679Z,98165.02
2018-07-20T02:20:23.087Z,98165.91
2018-07-20T02:22:51.605Z,98170.70
2018-07-20T02:25:20.263Z,98161.05
2018-07-20T02:27:48.701Z,98164.11
2018-07-20T02:30:17.166Z,98167.32
2018-07-20T02:32:45.967Z,98166.50
2018-07-20T02:35:14.400Z,98162.86
2018-07-20T02:37:42.898Z,98162.17
2018-07-20T02:40:12.240Z,98154.95
2018-07-20T02:42:40.713Z,98159.95
2018-07-20T02:45:09.180Z,98158.55
2018-07-20T02:47:37.780Z,98154.21
2018-07-20T02:50:06.222Z,98158.55
2018-07-20T02:52:34.660Z,98152.36
2018-07-20T02:55:03.124Z,98149.67
2018-07-20T02:57:31.612Z,98156.02
2018-07-20T03:00:00.048Z,98154.59
2018-07-20T03:02:28.508Z,98151.53
2018-07-20T03:04:57.030Z,98155.32
2018-07-20T03:07:25.513Z,98149.87
2018-07-20T03:09:53.904Z,98150.78
2018-07-20T03:12:22.352Z,98152.86
2018-07-20T03:14:50.822Z,98151.67
2018-07-20T03:17:19.268Z,98151.22
2018-07-20T03:19:47.716Z,98150.48
2018-07-20T03:22:17.591Z,98153.66
2018-07-20T03:24:46.033Z,98151.66
2018-07-20T03:27:14.471Z,98154.54
2018-07-20T03:29:42.947Z,98154.05
2018-07-20T03:32:11.421Z,98147.06
2018-07-20T03:34:39.847Z,98150.66
2018-07-20T03:37:08.521Z,98152.97
2018-07-20T03:39:36.953Z,98147.48
2018-07-20T03:42:05.701Z,98139.47
2018-07-20T03:44:34.140Z,98145.56
2018-07-20T03:47:02.635Z,98145.20
2018-07-20T03:49:31.114Z,98144.44
2018-07-20T03:51:59.555Z,98147.28
2018-07-20T03:54:28.197Z,98153.11
2018-07-20T03:56:56.631Z,98152.77
2018-07-20T03:59:25.113Z,98145.90
2018-07-20T04:01:53.615Z,98152.01
2018-07-20T04:04:22.203Z,98149.65
2018-07-20T04:06:50.647Z,98157.06
2018-07-20T04:09:19.088Z,98156.67
2018-07-20T04:11:47.559Z,98150.53
2018-07-20T04:14:15.978Z,98150.66
2018-07-20T04:16:44.426Z,98155.19
2018-07-20T04:19:12.859Z,98152.73
2018-07-20T04:21:41.330Z,98158.84
2018-07-20T04:24:10.140Z,98155.84
2018-07-20T04:26:38.937Z,98158.20
2018-07-20T04:29:07.376Z,98155.00
2018-07-20T04:31:35.814Z,98156.99
2018-07-20T04:34:04.564Z,98157.63
2018-07-20T04:36:33.092Z,98157.48
2018-07-20T04:39:01.881Z,98162.58
2018-07-20T04:41:30.328Z,98155.64
2018-07-20T04:43:59.058Z,98156.33
2018-07-20T04:46:27.487Z,98166.69
2018-07-20T04:48:55.930Z,98158.49
2018-07-20T04:51:24.412Z,98166.88
2018-07-20T04:53:52.857Z,98160.02
2018-07-20T04:56:21.303Z,98164.77
2018-07-20T04:58:49.750Z,98166.77
2018-07-20T05:01:18.261Z,98167.51
2018-07-20T05:03:47.056Z,98175.17
2018-07-20T05:06:15.464Z,98164.58
2018-07-20T05:08:44.002Z,98175.64
2018-07-20T05:11:12.451Z,98163.44
2018-07-20T05:13:40.896Z,98163.31
2018-07-20T05:16:09.635Z,98170.38
2018-07-20T05:18:38.167Z,98161.44
2018-07-20T05:21:06.838Z,98161.84
2018-07-20T05:23:35.315Z,98160.29
2018-07-20T05:26:03.827Z,98163.78
2018-07-20T05:28:32.278Z,98159.95
2018-07-20T05:31:01.080Z,98160.98
2018-07-20T05:33:29.481Z,98164.66
2018-07-20T05:35:57.948Z,98154.66
2018-07-20T05:38:26.400Z,98156.79
2018-07-20T05:40:54.843Z,98148.72
2018-07-20T05:43:23.543Z,98148.19
2018-07-20T05:45:51.974Z,98144.48
2018-07-20T05:48:20.436Z,98146.88
2018-07-20T05:50:48.841Z,98140.97
2018-07-20T05:53:17.314Z,98141.62
2018-07-20T05:55:45.704Z,98139.95
2018-07-20T05:58:44.540Z,98141.06
2018-07-20T06:01:12.976Z,98137.95
2018-07-20T06:03:41.634Z,98140.48
2018-07-20T06:06:10.131Z,98131.13
2018-07-20T06:08:38.554Z,98128.97
2018-07-20T06:11:07.536Z,98141.61
2018-07-20T06:13:36.324Z,98135.45
2018-07-20T06:16:04.799Z,98134.95
2018-07-20T06:18:33.224Z,98140.63
2018-07-20T06:21:01.691Z,98147.94
2018-07-20T06:23:30.274Z,98137.51
2018-07-20T06:25:58.716Z,98142.77
2018-07-20T06:28:27.192Z,98144.47
2018-07-20T06:30:55.620Z,98151.86
2018-07-20T06:33:24.371Z,98147.52
2018-07-20T06:35:52.777Z,98150.50
2018-07-20T06:38:21.236Z,98148.73
2018-07-20T06:40:49.689Z,98152.36
2018-07-20T06:43:18.155Z,98148.61
2018-07-20T06:45:46.930Z,98146.84
2018-07-20T06:48:15.372Z,98149.94
2018-07-20T06:50:43.778Z,98152.84
2018-07-20T06:53:12.251Z,98157.03
2018-07-20T06:55:40.665Z,98156.64
2018-07-20T06:58:09.120Z,98154.86
2018-07-20T07:00:37.572Z,98158.06
2018-07-20T07:03:06.324Z,98161.56
2018-07-20T07:05:34.761Z,98160.18
2018-07-20T07:08:03.230Z,98166.58
2018-07-20T07:10:31.947Z,98159.92
2018-07-20T07:13:00.347Z,98161.98
2018-07-20T07:15:28.791Z,98158.36
2018-07-20T07:17:57.265Z,98167.81
2018-07-20T07:20:25.827Z,98163.64
2018-07-20T07:22:55.530Z,98164.59
2018-07-20T07:25:23.972Z,98164.43
2018-07-20T07:27:52.420Z,98164.05
2018-07-20T07:30:21.122Z,98159.61
2018-07-20T07:32:50.100Z,98161.88
2018-07-20T07:35:18.485Z,98165.61
2018-07-20T07:37:46.907Z,98158.64
2018-07-20T07:40:15.326Z,98161.03
2018-07-20T07:42:43.794Z,98155.34
2018-07-20T07:45:12.308Z,98151.64
2018-07-20T07:47:40.907Z,98154.34
2018-07-20T07:50:09.397Z,98148.77
2018-07-20T07:52:37.865Z,98150.32
2018-07-20T07:55:06.613Z,98149.41
2018-07-20T07:57:35.066Z,98146.53
2018-07-20T08:00:03.545Z,98152.86
2018-07-20T08:02:32.015Z,98147.21
2018-07-20T08:05:00.637Z,98150.19
2018-07-20T08:07:29.075Z,98144.70
2018-07-20T08:09:57.881Z,98142.77
2018-07-20T08:12:26.236Z,98143.75
2018-07-20T08:14:54.706Z,98139.88
2018-07-20T08:17:23.148Z,98141.89
2018-07-20T08:19:52.669Z,98133.83
2018-07-20T08:22:21.174Z,98126.81
2018-07-20T08:24:49.687Z,98138.02
2018-07-20T08:27:18.251Z,98133.53
2018-07-20T08:29:47.135Z,98126.63
2018-07-20T08:32:15.676Z,98124.95
2018-07-20T08:34:44.113Z,98127.78
2018-07-20T08:37:12.575Z,98121.22
2018-07-20T08:39:41.235Z,98118.64
2018-07-20T08:42:10.136Z,98120.46
2018-07-20T08:44:38.611Z,98124.86
2018-07-20T08:47:07.023Z,98119.74
2018-07-20T08:49:35.430Z,98120.25
2018-07-20T08:52:03.909Z,98114.38
2018-07-20T08:54:32.391Z,98107.23
2018-07-20T08:57:00.948Z,98111.88
2018-07-20T08:59:29.385Z,98110.72
2018-07-20T09:01:57.935Z,98111.67
2018-07-20T09:04:26.337Z,98102.98
2018-07-20T09:06:54.763Z,98101.67
2018-07-20T09:09:23.231Z,98102.34
2018-07-20T09:11:51.835Z,98102.87
2018-07-20T09:14:20.276Z,98101.17
2018-07-20T09:16:48.821Z,98107.16
2018-07-20T09:19:17.276Z,98100.45
2018-07-20T09:21:45.911Z,98106.59
2018-07-20T09:24:14.355Z,98104.73
2018-07-20T09:26:42.792Z,98101.67
2018-07-20T09:29:11.205Z,98094.27
2018-07-20T09:31:39.656Z,98097.23
2018-07-20T09:34:08.130Z,98094.34
2018-07-20T09:36:36.547Z,98096.66
2018-07-20T09:39:07.936Z,98094.91
2018-07-20T09:41:36.421Z,98094.02
2018-07-20T09:44:05.109Z,98102.45
2018-07-20T09:46:34.040Z,98091.20
2018-07-20T09:49:02.809Z,98088.94
2018-07-20T09:51:31.256Z,98088.47
2018-07-20T09:54:00.128Z,98084.57
2018-07-20T09:56:28.984Z,98080.74
2018-07-20T09:58:57.484Z,98079.72
2018-07-20T10:01:25.942Z,98076.38
2018-07-20T10:04:01.037Z,98082.50
2018-07-20T10:06:29.662Z,98081.46
2018-07-20T10:08:58.201Z,98081.91
2018-07-20T10:11:26.847Z,98074.38
2018-07-20T10:13:55.288Z,98064.48
2018-07-20T10:16:23.724Z,98073.72
2018-07-20T10:18:52.165Z,98077.09
2018-07-20T10:21:20.646Z,98067.55
2018-07-20T10:23:49.538Z,98070.63
2018-07-20T10:26:18.214Z,98064.03
2018-07-20T10:28:46.652Z,98068.14
2018-07-20T10:31:15.393Z,98062.41
2018-07-20T10:33:43.868Z,98059.77
2018-07-20T10:36:12.318Z,98054.70
2018-07-20T10:38:41.188Z,98067.77
2018-07-20T10:41:09.894Z,98060.75
2018-07-20T10:43:38.336Z,98053.86
2018-07-20T10:46:06.803Z,98047.83
2018-07-20T10:48:35.275Z,98050.71
2018-07-20T10:51:03.686Z,98043.42
2018-07-20T10:53:32.160Z,98040.17
2018-07-20T10:56:00.664Z,98035.53
2018-07-20T10:58:29.512Z,98035.72
2018-07-20T11:00:58.156Z,98031.62
2018-07-20T11:03:26.608Z,98020.17
2018-07-20T11:05:55.007Z,98025.91
2018-07-20T11:08:23.425Z,98022.11
2018-07-20T11:10:51.893Z,98021.69
2018-07-20T11:13:20.666Z,98020.05
2018-07-20T11:15:49.097Z,98014.00
2018-07-20T11:18:17.540Z,98010.44
2018-07-20T11:20:45.964Z,98007.23
2018-07-20T11:23:14.482Z,98014.83
2018-07-20T11:25:42.956Z,98008.06
2018-07-20T11:28:11.597Z,98010.61
2018-07-20T11:30:40.807Z,98000.73
2018-07-20T11:33:09.268Z,98005.56
2018-07-20T11:35:37.697Z,98003.28
2018-07-20T11:38:06.124Z,97991.81
2018-07-20T11:40:34.518Z,97993.17
2018-07-20T11:43:03.012Z,97984.23
2018-07-20T11:45:31.407Z,97979.30
2018-07-20T11:48:00.368Z,97988.28
2018-07-20T11:50:28.848Z,97977.50
2018-07-20T11:52:57.287Z,97980.36
2018-07-20T11:55:25.733Z,97976.98
2018-07-20T11:57:54.259Z,97977.16
2018-07-20T12:00:22.851Z,97969.55
2018-07-20T12:02:51.357Z,97972.95
2018-07-20T12:05:19.803Z,97960.68
2018-07-20T12:07:48.459Z,97957.08
2018-07-20T12:10:17.153Z,97950.73
2018-07-20T12:13:48.944Z,97949.24
2018-07-20T12:16:17.659Z,97943.63
2018-07-20T12:18:46.187Z,97929.13
2018-07-20T12:21:14.645Z,97931.48
2018-07-20T12:23:43.259Z,97930.69
2018-07-20T12:26:11.920Z,97932.61
2018-07-20T12:28:40.393Z,97933.38
2018-07-20T12:31:08.980Z,97933.53
2018-07-20T12:33:37.542Z,97935.53
2018-07-20T12:36:06.437Z,97923.59
2018-07-20T12:38:34.899Z,97927.16
2018-07-20T12:41:03.629Z,97921.41
2018-07-20T12:43:32.203Z,97916.20
2018-07-20T12:46:00.637Z,97921.11
2018-07-20T12:48:29.514Z,97922.46
2018-07-20T12:50:57.956Z,97916.98
2018-07-20T12:53:27.027Z,97909.05
2018-07-20T12:55:55.494Z,97910.70
2018-07-20T12:58:24.195Z,97915.30
2018-07-20T13:00:52.836Z,97910.99
2018-07-20T13:03:21.292Z,97907.30
2018-07-20T13:05:49.737Z,97905.73
2018-07-20T13:08:18.224Z,97907.02
2018-07-20T13:10:46.733Z,97906.90
2018-07-20T13:13:15.244Z,97894.12
2018-07-20T13:15:44.106Z,97909.23
2018-07-20T13:18:12.637Z,97905.66
2018-07-20T13:20:41.084Z,97905.09
2018-07-20T13:23:09.603Z,97905.59
2018-07-20T13:25:38.367Z,97902.55
2018-07-20T13:28:06.927Z,97895.52
2018-07-20T13:30:35.379Z,97897.02
2018-07-20T13:33:04.199Z,97889.71
2018-07-20T13:35:32.633Z,97888.84
2018-07-20T13:38:01.169Z,97888.70
2018-07-20T13:40:29.604Z,97885.45
2018-07-20T13:42:58.043Z,97883.02
2018-07-20T13:45:26.542Z,97875.27
2018-07-20T13:47:54.955Z,97871.98
2018-07-20T13:50:23.488Z,97872.66
2018-07-20T13:52:51.999Z,97868.84
2018-07-20T13:55:20.497Z,97868.77
2018-07-20T13:57:49.113Z,97868.94
2018-07-20T14:00:17.820Z,97861.66
2018-07-20T14:02:46.493Z,97866.40
2018-07-20T14:05:14.955Z,97867.47
2018-07-20T14:07:43.433Z,97865.30
2018-07-20T14:10:11.907Z,97863.09
2018-07-20T14:12:40.425Z,97871.34
2018-07-20T14:15:08.919Z,97863.83
2018-07-20T14:17:37.456Z,97850.51
2018-07-20T14:20:06.253Z,97851.03
2018-07-20T14:22:34.731Z,97846.28
2018-07-20T14:25:03.201Z,97848.91
2018-07-20T14:27:31.622Z,97839.02
2018-07-20T14:30:00.082Z,97842.28
2018-07-20T14:32:29.524Z,97838.41
2018-07-20T14:34:57.964Z,97839.97
2018-07-20T14:37:26.632Z,97831.93
2018-07-20T14:39:55.110Z,97833.02
2018-07-20T14:42:23.559Z,97833.09
2018-07-20T14:44:52.015Z,97822.67
2018-07-20T14:47:20.682Z,97816.19
2018-07-20T14:49:49.116Z,97825.12
2018-07-20T14:52:17.558Z,97823.55
2018-07-20T14:54:46.098Z,97825.32
2018-07-20T14:57:14.551Z,97824.02
2018-07-20T14:59:42.958Z,97815.77
2018-07-20T15:02:11.402Z,97809.20
2018-07-20T15:04:39.869Z,97810.92
2018-07-20T15:07:08.487Z,97814.92
2018-07-20T15:09:36.917Z,97812.73
2018-07-20T15:12:05.482Z,97804.67
2018-07-20T15:14:33.908Z,97804.59
2018-07-20T15:17:02.578Z,97807.31
2018-07-20T15:19:31.009Z,97805.97
2018-07-20T15:21:59.459Z,97798.61
2018-07-20T15:24:27.884Z,97800.41
2018-07-20T15:26:56.676Z,97798.59
2018-07-20T15:29:25.443Z,97792.59
2018-07-20T15:31:53.895Z,97789.66
2018-07-20T15:34:22.314Z,97780.77
2018-07-20T15:36:50.790Z,97782.16
2018-07-20T15:39:19.244Z,97774.45
2018-07-20T15:41:47.806Z,97781.08
2018-07-20T15:44:16.359Z,97776.73
2018-07-20T15:46:45.241Z,97778.67
2018-07-20T15:49:13.498Z,97770.20
2018-07-20T15:53:35.343Z,97779.44
2018-07-20T15:54:10.832Z,97784.48
2018-07-20T15:56:39.347Z,97772.48
2018-07-20T15:59:07.869Z,97769.52
2018-07-20T16:01:36.313Z,97768.73
2018-07-20T16:04:05.144Z,97764.23
2018-07-20T16:06:33.597Z,97766.39
2018-07-20T16:09:02.036Z,97765.94
2018-07-20T16:11:30.558Z,97761.98
2018-07-20T16:13:59.326Z,97766.52
2018-07-20T16:16:28.113Z,97764.38
2018-07-20T16:18:56.542Z,97758.20
2018-07-20T16:21:24.983Z,97760.58
2018-07-20T16:23:53.796Z,97753.16
2018-07-20T16:26:22.315Z,97755.11
2018-07-20T16:28:51.023Z,97745.89
2018-07-20T16:31:20.014Z,97743.05
2018-07-20T16:33:48.422Z,97746.33
2018-07-20T16:36:16.867Z,97737.19
2018-07-20T16:38:45.301Z,97737.83
2018-07-20T16:41:13.776Z,97736.01
2018-07-20T16:43:42.715Z,97741.16
2018-07-20T16:46:11.186Z,97728.88
2018-07-20T16:48:39.777Z,97736.64
2018-07-20T16:51:08.242Z,97740.78
2018-07-20T16:53:37.055Z,97737.69
2018-07-20T16:56:05.501Z,97778.93
2018-07-20T16:58:33.962Z,97892.42
2018-07-20T17:01:02.421Z,97833.72
2018-07-20T17:03:31.013Z,97798.41
2018-07-20T17:05:59.660Z,97777.58
2018-07-20T17:08:28.099Z,97770.12
2018-07-20T17:10:56.550Z,97760.09
2018-07-20T17:13:25.019Z,97756.22
2018-07-20T17:15:53.451Z,97757.94
2018-07-20T17:18:21.907Z,97753.33
2018-07-20T17:20:50.367Z,97752.77
2018-07-20T17:23:19.199Z,97748.50
2018-07-20T17:25:47.644Z,97736.13
2018-07-20T17:28:16.156Z,97754.87
2018-07-20T17:30:44.533Z,97754.78
2018-07-20T17:33:12.934Z,97760.52
2018-07-20T17:35:41.419Z,97760.96
2018-07-20T17:38:09.858Z,97753.30
2018-07-20T17:40:38.271Z,97755.58
2018-07-20T17:43:06.737Z,97748.64
2018-07-20T17:45:35.233Z,97752.23
2018-07-20T17:48:03.707Z,97750.23
2018-07-20T17:50:32.370Z,97749.05
2018-07-20T17:53:00.822Z,97751.56
2018-07-20T17:55:29.256Z,97750.88
2018-07-20T17:57:57.672Z,97740.62
2018-07-20T18:00:26.153Z,97747.23
2018-07-20T18:02:54.933Z,97749.53
2018-07-20T18:05:23.359Z,97743.79
2018-07-20T18:07:51.798Z,97742.06
2018-07-20T18:10:20.261Z,97738.27
2018-07-20T18:12:48.699Z,97748.40
2018-07-20T18:15:17.123Z,97742.62
2018-07-20T18:17:45.598Z,97740.59
2018-07-20T18:20:14.095Z,97739.77
2018-07-20T18:22:42.516Z,97744.94
2018-07-20T18:25:10.949Z,97742.78
2018-07-20T18:27:39.379Z,97736.06
2018-07-20T18:30:07.996Z,97740.79
2018-07-20T18:32:36.446Z,97737.63
2018-07-20T18:35:04.901Z,97739.86
2018-07-20T18:37:33.456Z,97736.22
2018-07-20T18:40:01.932Z,97741.85
2018-07-20T18:42:30.379Z,97737.02
2018-07-20T18:44:58.891Z,97736.23
2018-07-20T18:47:27.340Z,97735.23
2018-07-20T18:49:55.788Z,97733.23
2018-07-20T18:52:24.248Z,97735.47
2018-07-20T18:54:52.645Z,97738.98
2018-07-20T18:57:21.135Z,97735.99
2018-07-20T18:59:49.601Z,97736.23
2018-07-20T19:02:18.027Z,97739.65
2018-07-20T19:04:46.912Z,97742.09
2018-07-20T19:07:15.344Z,97736.59
2018-07-20T19:09:43.914Z,97743.33
2018-07-20T19:12:12.654Z,97746.41
2018-07-20T19:14:41.127Z,97747.14
2018-07-20T19:17:09.881Z,97752.03
2018-07-20T19:19:38.415Z,97748.02
2018-07-20T19:22:07.232Z,97747.30
2018-07-20T19:24:35.667Z,97754.02
2018-07-20T19:27:04.172Z,97754.72
2018-07-20T19:29:32.648Z,97756.00
2018-07-20T19:32:01.380Z,97757.26
2018-07-20T19:34:29.883Z,97764.63
2018-07-20T19:36:58.596Z,97763.73
2018-07-20T19:39:27.036Z,97763.39
2018-07-20T19:41:55.519Z,97765.76
2018-07-20T19:44:23.983Z,97768.66
2018-07-20T19:46:52.380Z,97767.30
2018-07-20T19:49:21.070Z,97774.23
2018-07-20T19:51:49.528Z,97770.09
2018-07-20T19:54:17.950Z,97772.98
2018-07-20T19:56:46.644Z,97771.31
2018-07-20T19:59:15.123Z,97772.27
2018-07-20T20:01:43.712Z,97768.13
2018-07-20T20:04:12.290Z,97767.05
2018-07-20T20:06:40.739Z,97768.41
2018-07-20T20:09:10.611Z,97768.80
2018-07-20T20:11:39.121Z,97764.34
2018-07-20T20:14:07.605Z,97767.17
2018-07-20T20:16:36.109Z,97771.50
2018-07-20T20:19:04.766Z,97769.14
2018-07-20T20:21:33.369Z,97768.63
2018-07-20T20:24:01.846Z,97767.36
2018-07-20T20:26:30.297Z,97772.01
2018-07-20T20:28:58.790Z,97766.20
2018-07-20T20:31:27.275Z,97769.51
2018-07-20T20:33:55.752Z,97770.13
2018-07-20T20:36:24.407Z,97766.31
2018-07-20T20:38:52.833Z,97770.98
2018-07-20T20:42:24.371Z,97776.88
2018-07-20T20:44:52.893Z,97770.41
2018-07-20T20:47:21.882Z,97773.03
2018-07-20T20:49:50.525Z,97777.67
2018-07-20T20:52:19.617Z,97777.64
2018-07-20T20:54:48.050Z,97779.03
2018-07-20T20:57:16.608Z,97776.63
2018-07-20T20:59:45.265Z,97780.02
2018-07-20T21:02:13.765Z,97775.11
2018-07-20T21:04:42.188Z,97781.19
2018-07-20T21:07:10.657Z,97776.21
2018-07-20T21:09:39.103Z,97786.43
2018-07-20T21:12:07.668Z,97780.89
2018-07-20T21:14:36.178Z,97785.00
2018-07-20T21:17:04.921Z,97779.44
2018-07-20T21:19:33.565Z,97780.95
2018-07-20T21:22:01.975Z,97782.26
2018-07-20T21:24:30.423Z,97789.56
2018-07-20T21:26:59.104Z,97787.30
2018-07-20T21:29:27.577Z,97784.94
2018-07-20T21:31:56.024Z,97786.40
2018-07-20T21:34:24.426Z,97780.30
2018-07-20T21:36:53.154Z,97775.13
2018-07-20T21:39:21.822Z,97775.94
2018-07-20T21:41:50.263Z,97778.75
2018-07-20T21:44:18.708Z,97782.94
2018-07-20T21:46:47.186Z,97784.86
2018-07-20T21:49:16.109Z,97786.70
2018-07-20T21:51:44.563Z,97783.06
2018-07-20T21:54:13.017Z,97783.27
2018-07-20T21:56:41.464Z,97785.69
2018-07-20T21:59:09.918Z,97788.45
2018-07-20T22:01:38.347Z,97786.16
2018-07-20T22:04:06.779Z,97784.84
2018-07-20T22:06:35.647Z,97730.85
2018-07-20T22:09:04.796Z,97787.82
2018-07-20T22:11:33.248Z,97789.00
2018-07-20T22:14:01.659Z,97778.53
2018-07-20T22:16:30.626Z,97747.65
2018-07-20T22:18:59.079Z,97782.67
2018-07-20T22:21:27.531Z,97778.07
2018-07-20T22:23:56.021Z,97773.79
2018-07-20T22:26:24.461Z,97777.69
2018-07-20T22:28:52.922Z,97779.02
2018-07-20T22:31:21.348Z,97779.55
2018-07-20T22:33:49.815Z,97774.22
2018-07-20T22:36:18.298Z,97772.04
2018-07-20T22:38:46.711Z,97773.83
2018-07-20T22:41:15.159Z,97775.44
2018-07-20T22:43:43.757Z,97775.25
2018-07-20T22:46:12.248Z,97771.61
2018-07-20T22:48:40.743Z,97773.20
2018-07-20T22:51:09.207Z,97771.89
2018-07-20T22:53:37.651Z,97773.86
2018-07-20T22:57:09.364Z,97769.80
2018-07-20T22:59:37.852Z,97770.64
2018-07-20T23:02:06.866Z,97766.96
2018-07-20T23:04:35.316Z,97770.66
2018-07-20T23:07:04.271Z,97763.53
2018-07-20T23:09:32.971Z,97741.37
2018-07-20T23:12:01.502Z,97762.48
2018-07-20T23:14:30.087Z,97761.00
2018-07-20T23:16:58.683Z,97763.95
2018-07-20T23:19:27.150Z,97759.38
2018-07-20T23:21:55.579Z,97757.55
2018-07-20T23:24:24.086Z,97759.33
2018-07-20T23:26:52.511Z,97754.05
2018-07-20T23:29:21.402Z,97755.89
2018-07-20T23:31:49.899Z,97761.50
2018-07-20T23:34:18.376Z,97764.84
2018-07-20T23:36:46.887Z,97765.42
2018-07-20T23:39:15.414Z,97763.95
2018-07-20T23:41:43.912Z,97767.96
2018-07-20T23:44:12.495Z,97770.77
2018-07-20T23:46:41.651Z,97761.69
2018-07-20T23:49:10.144Z,97771.14
2018-07-20T23:51:38.866Z,97769.97
2018-07-20T23:54:07.691Z,97781.63
2018-07-20T23:56:36.151Z,97776.83
2018-07-20T23:59:04.936Z,97781.12
